Time;durP1;ratioP1;P1;durP2;ratioP2;P2;SDS_P1;SDS_P2;PMS_P1;PMS_P2;Temp;Humidity;BMP_temperature;BMP_pressure;BME280_temperature;BME280_humidity;BME280_pressure;Samples;Min_cycle;Max_cycle;Signal;HPM_P1;HPM_P2
2022/04/30 00:01:54;;;;;;;;;;;5.10;99.90;;;;;;5053196;28;19924;-69
2022/04/30 00:04:19;;;;;;;;;;;5.10;99.90;;;;;;5053014;28;20303;-71
2022/04/30 00:06:45;;;;;;;;;;;5.70;99.90;;;;;;5053051;28;19925;-69
2022/04/30 00:09:11;;;;;;;;;;;5.10;99.90;;;;;;5052306;28;20015;-69
2022/04/30 00:11:36;;;;;;;;;;;6.50;99.90;;;;;;5052019;28;20379;-72
2022/04/30 00:14:02;;;;;;;;;;;6.20;99.90;;;;;;5052284;28;19932;-70
2022/04/30 00:16:27;;;;;;;;;;;5.50;99.90;;;;;;5053105;28;20335;-69
2022/04/30 00:18:53;;;;;;;;;;;5.10;99.90;;;;;;5056588;28;19947;-69
2022/04/30 00:21:18;;;;;;;;;;;5.50;99.90;;;;;;5056664;28;20403;-70
2022/04/30 00:23:44;;;;;;;;;;;5.20;99.90;;;;;;5056699;28;20540;-69
2022/04/30 00:26:09;;;;;;;;;;;5.10;99.90;;;;;;5056829;28;19972;-69
2022/04/30 00:28:35;;;;;;;;;;;5.90;99.90;;;;;;5056691;28;19924;-69
2022/04/30 00:31:02;;;;;;;;;;;5.10;99.90;;;;;;5056682;28;19928;-70
2022/04/30 00:33:28;;;;;;;;;;;5.20;99.90;;;;;;5055617;28;20449;-71
2022/04/30 00:35:53;;;;;;;;;;;5.20;99.90;;;;;;5056510;28;19932;-69
2022/04/30 00:38:19;;;;;;;;;;;5.30;99.90;;;;;;5056365;28;19925;-71
2022/04/30 00:40:45;;;;;;;;;;;5.10;99.90;;;;;;5056212;28;19929;-70
2022/04/30 00:43:10;;;;;;;;;;;5.60;99.90;;;;;;5056545;28;19931;-69
2022/04/30 00:45:36;;;;;;;;;;;5.10;99.90;;;;;;5056379;28;19987;-70
2022/04/30 00:48:02;;;;;;;;;;;5.20;99.90;;;;;;5056180;28;19968;-71
2022/04/30 00:50:32;;;;;;;;;;;5.10;99.90;;;;;;5055166;28;19931;-69
2022/04/30 00:52:59;;;;;;;;;;;5.10;99.90;;;;;;5055174;28;20011;-70
2022/04/30 00:55:27;;;;;;;;;;;5.20;99.90;;;;;;5056003;28;19978;-72
2022/04/30 00:57:54;;;;;;;;;;;5.40;99.90;;;;;;5056113;28;19978;-69
2022/04/30 01:00:20;;;;;;;;;;;5.10;99.90;;;;;;5055140;28;19972;-70
2022/04/30 01:02:45;;;;;;;;;;;6.40;99.90;;;;;;5054781;28;19983;-69
2022/04/30 01:05:11;;;;;;;;;;;6.30;99.90;;;;;;5056123;28;19928;-69
2022/04/30 01:07:40;;;;;;;;;;;6.00;99.90;;;;;;5055842;28;19925;-70
2022/04/30 01:10:07;;;;;;;;;;;5.60;99.90;;;;;;5054844;28;19932;-70
2022/04/30 01:12:32;;;;;;;;;;;4.60;99.90;;;;;;5055856;28;19992;-71
2022/04/30 01:14:58;;;;;;;;;;;5.20;99.90;;;;;;5055865;28;19929;-70
2022/04/30 01:17:24;;;;;;;;;;;5.20;99.90;;;;;;5054652;28;19931;-70
2022/04/30 01:19:49;;;;;;;;;;;5.20;99.90;;;;;;5055454;28;19929;-70
2022/04/30 01:22:26;;;;;;;;;;;5.20;99.90;;;;;;5055221;28;19929;-71
2022/04/30 01:24:55;;;;;;;;;;;5.30;99.90;;;;;;5055608;28;20388;-69
2022/04/30 01:27:23;;;;;;;;;;;5.40;99.90;;;;;;5055319;28;19994;-72
2022/04/30 01:29:49;;;;;;;;;;;5.40;99.90;;;;;;5054477;28;19925;-70
2022/04/30 01:37:57;;;;;;;;;;;5.50;99.90;;;;;;5032847;28;19964;-70
2022/04/30 01:40:22;;;;;;;;;;;5.50;99.90;;;;;;5016372;28;20033;-69
2022/04/30 01:42:48;;;;;;;;;;;5.40;99.90;;;;;;5032695;28;19933;-70
2022/04/30 01:45:14;;;;;;;;;;;5.40;99.90;;;;;;5016053;28;19933;-70
2022/04/30 01:47:41;;;;;;;;;;;5.30;99.90;;;;;;5032692;28;20437;-69
2022/04/30 01:50:07;;;;;;;;;;;6.60;99.90;;;;;;5016235;28;20328;-71
2022/04/30 01:52:33;;;;;;;;;;;5.40;99.90;;;;;;5032564;28;19925;-69
2022/04/30 01:54:59;;;;;;;;;;;5.50;99.90;;;;;;5032537;28;19937;-72
2022/04/30 01:57:28;;;;;;;;;;;5.50;99.90;;;;;;5032447;28;20052;-70
2022/04/30 01:59:54;;;;;;;;;;;7.40;99.90;;;;;;5032552;28;20474;-70
2022/04/30 02:02:23;;;;;;;;;;;5.50;99.90;;;;;;5032452;28;20388;-69
2022/04/30 02:04:52;;;;;;;;;;;5.50;99.90;;;;;;5032141;28;20019;-71
2022/04/30 02:07:19;;;;;;;;;;;5.50;99.90;;;;;;5032415;28;19969;-69
2022/04/30 02:09:45;;;;;;;;;;;5.80;99.90;;;;;;5017589;28;19924;-69
2022/04/30 02:12:10;;;;;;;;;;;5.60;99.90;;;;;;5054435;28;19925;-72
2022/04/30 02:14:38;;;;;;;;;;;5.60;99.90;;;;;;5054335;28;19925;-71
2022/04/30 02:17:05;;;;;;;;;;;6.00;99.90;;;;;;5054157;28;20380;-70
2022/04/30 02:20:18;;;;;;;;;;;6.00;99.90;;;;;;5054510;28;20365;-70
2022/04/30 02:22:21;;;;;;;;;;;6.60;99.90;;;;;;5052904;28;19979;-71
2022/04/30 02:24:48;;;;;;;;;;;5.60;99.90;;;;;;5054155;28;19925;-70
2022/04/30 02:27:14;;;;;;;;;;;6.70;99.90;;;;;;5053138;28;19925;-69
2022/04/30 02:29:39;;;;;;;;;;;5.70;99.90;;;;;;5054012;28;20296;-69
2022/04/30 02:32:05;;;;;;;;;;;5.70;99.90;;;;;;5052995;28;20371;-70
2022/04/30 02:34:31;;;;;;;;;;;5.60;99.90;;;;;;5053985;28;20380;-71
2022/04/30 02:36:56;;;;;;;;;;;7.00;99.90;;;;;;5053180;28;19924;-70
2022/04/30 02:39:22;;;;;;;;;;;5.60;99.90;;;;;;5053079;28;20391;-70
2022/04/30 02:41:48;;;;;;;;;;;7.10;99.90;;;;;;5052545;28;20302;-69
2022/04/30 02:44:14;;;;;;;;;;;6.20;99.90;;;;;;5052683;28;19924;-70
2022/04/30 02:46:39;;;;;;;;;;;6.50;99.90;;;;;;5053674;28;19987;-70
2022/04/30 02:49:05;;;;;;;;;;;5.70;99.90;;;;;;5052883;28;20466;-70
2022/04/30 02:51:31;;;;;;;;;;;6.90;99.90;;;;;;5053831;28;20376;-68
2022/04/30 02:53:56;;;;;;;;;;;5.80;99.90;;;;;;5053880;28;19932;-72
2022/04/30 02:56:22;;;;;;;;;;;5.80;99.90;;;;;;5053584;28;20007;-72
2022/04/30 03:01:33;;;;;;;;;;;6.90;99.90;;;;;;5053645;28;19975;-71
2022/04/30 03:03:59;;;;;;;;;;;4.70;99.90;;;;;;5053634;28;19972;-70
2022/04/30 03:06:25;;;;;;;;;;;5.90;99.90;;;;;;5053596;28;20358;-72
2022/04/30 03:08:51;;;;;;;;;;;5.90;99.90;;;;;;5053402;28;19924;-71
2022/04/30 03:11:19;;;;;;;;;;;5.90;99.90;;;;;;5052281;28;19967;-69
2022/04/30 03:13:45;;;;;;;;;;;7.10;99.90;;;;;;5053265;28;19924;-70
2022/04/30 03:21:42;;;;;;;;;;;5.90;99.90;;;;;;5052148;28;20793;-70
2022/04/30 03:24:08;;;;;;;;;;;5.90;99.90;;;;;;5052288;28;19926;-70
2022/04/30 03:26:33;;;;;;;;;;;5.80;99.90;;;;;;5053379;28;19932;-70
2022/04/30 03:28:59;;;;;;;;;;;7.00;99.90;;;;;;5053488;28;20306;-70
2022/04/30 03:31:24;;;;;;;;;;;5.70;99.90;;;;;;5053473;28;19925;-69
2022/04/30 03:33:50;;;;;;;;;;;5.70;99.90;;;;;;5053497;28;19929;-70
2022/04/30 03:36:17;;;;;;;;;;;6.10;99.90;;;;;;5053476;28;19932;-69
2022/04/30 03:38:44;;;;;;;;;;;6.20;99.90;;;;;;5053437;28;20383;-71
2022/04/30 03:41:09;;;;;;;;;;;6.60;99.90;;;;;;5053188;28;20296;-69
2022/04/30 03:43:35;;;;;;;;;;;6.00;99.90;;;;;;5053561;28;19926;-69
2022/04/30 03:46:00;;;;;;;;;;;6.80;99.90;;;;;;5035908;28;20367;-69
2022/04/30 03:48:26;;;;;;;;;;;6.40;99.90;;;;;;5053460;28;19932;-70
2022/04/30 03:50:52;;;;;;;;;;;6.80;99.90;;;;;;5052207;28;19935;-69
2022/04/30 03:53:18;;;;;;;;;;;5.60;99.90;;;;;;5056026;28;19924;-72
2022/04/30 03:55:44;;;;;;;;;;;5.60;99.90;;;;;;5057115;28;19932;-70
2022/04/30 03:58:10;;;;;;;;;;;5.60;99.90;;;;;;5057278;28;20348;-69
2022/04/30 04:00:36;;;;;;;;;;;6.30;99.90;;;;;;5056480;28;19924;-69
2022/04/30 04:03:02;;;;;;;;;;;5.00;99.90;;;;;;5055992;28;20300;-71
2022/04/30 04:05:28;;;;;;;;;;;5.60;99.90;;;;;;5056988;28;19968;-69
2022/04/30 04:07:56;;;;;;;;;;;5.60;99.90;;;;;;5055784;28;20370;-70
2022/04/30 04:10:21;;;;;;;;;;;6.90;99.90;;;;;;5056905;28;19928;-70
2022/04/30 04:12:47;;;;;;;;;;;4.10;99.90;;;;;;5057378;28;19979;-69
2022/04/30 04:17:56;;;;;;;;;;;6.40;99.90;;;;;;5056893;28;19931;-70
2022/04/30 04:20:24;;;;;;;;;;;7.10;99.90;;;;;;5056889;28;20031;-71
2022/04/30 04:22:51;;;;;;;;;;;4.60;99.90;;;;;;5056508;28;19925;-69
2022/04/30 04:28:00;;;;;;;;;;;5.40;99.90;;;;;;5055724;28;19924;-70
2022/04/30 04:30:27;;;;;;;;;;;5.60;99.90;;;;;;5056764;28;19971;-70
2022/04/30 04:32:53;;;;;;;;;;;5.50;99.90;;;;;;5056587;28;20015;-69
2022/04/30 04:35:18;;;;;;;;;;;4.00;99.90;;;;;;5056556;28;19931;-69
2022/04/30 04:37:44;;;;;;;;;;;5.60;99.90;;;;;;5056428;28;19931;-69
2022/04/30 04:40:11;;;;;;;;;;;5.60;99.90;;;;;;5056698;28;19987;-69
2022/04/30 04:42:37;;;;;;;;;;;5.60;99.90;;;;;;5038485;28;20372;-70
2022/04/30 04:45:03;;;;;;;;;;;5.60;99.90;;;;;;5056496;28;19932;-70
2022/04/30 04:47:29;;;;;;;;;;;5.60;99.90;;;;;;5055421;28;20023;-70
2022/04/30 04:49:54;;;;;;;;;;;5.60;99.90;;;;;;5056280;28;19968;-69
2022/04/30 04:52:21;;;;;;;;;;;5.60;99.90;;;;;;5056123;28;19986;-69
2022/04/30 04:54:46;;;;;;;;;;;5.80;99.90;;;;;;5055301;28;20379;-72
2022/04/30 04:57:12;;;;;;;;;;;7.10;99.90;;;;;;5056301;28;19928;-70
2022/04/30 04:59:37;;;;;;;;;;;5.60;99.90;;;;;;5056207;28;19925;-72
2022/04/30 05:02:03;;;;;;;;;;;6.70;99.90;;;;;;5054966;28;19924;-70
2022/04/30 05:04:29;;;;;;;;;;;5.70;99.90;;;;;;5053693;28;20294;-72
2022/04/30 05:06:55;;;;;;;;;;;6.70;99.90;;;;;;5055845;28;20338;-71
2022/04/30 05:09:20;;;;;;;;;;;5.80;99.90;;;;;;5055743;28;19931;-70
2022/04/30 05:11:46;;;;;;;;;;;5.80;99.90;;;;;;5055876;28;19925;-72
2022/04/30 05:14:11;;;;;;;;;;;5.90;99.90;;;;;;5055988;28;19951;-70
2022/04/30 05:16:37;;;;;;;;;;;6.00;99.90;;;;;;5055789;28;19978;-70
2022/04/30 05:19:05;;;;;;;;;;;6.00;99.90;;;;;;5055624;28;19929;-70
2022/04/30 05:21:31;;;;;;;;;;;6.00;99.90;;;;;;5055577;28;19972;-69
2022/04/30 05:23:56;;;;;;;;;;;6.80;99.90;;;;;;5055687;28;19967;-70
2022/04/30 05:26:22;;;;;;;;;;;6.50;99.90;;;;;;5055621;28;19929;-72
2022/04/30 05:28:47;;;;;;;;;;;6.40;99.90;;;;;;5055733;28;19996;-70
2022/04/30 05:31:13;;;;;;;;;;;6.40;99.90;;;;;;5055699;28;19932;-70
2022/04/30 05:33:38;;;;;;;;;;;5.40;99.90;;;;;;5054592;28;19925;-70
2022/04/30 05:36:04;;;;;;;;;;;6.80;99.90;;;;;;5055460;28;20007;-69
2022/04/30 05:38:30;;;;;;;;;;;6.20;99.90;;;;;;5054401;28;19924;-70
2022/04/30 05:40:55;;;;;;;;;;;6.80;99.90;;;;;;5055227;28;19925;-70
2022/04/30 05:43:21;;;;;;;;;;;7.50;99.90;;;;;;5055430;28;19932;-71
2022/04/30 05:45:46;;;;;;;;;;;6.30;99.90;;;;;;5055317;28;20311;-70
2022/04/30 05:48:12;;;;;;;;;;;7.70;99.90;;;;;;5055301;28;19947;-69
2022/04/30 05:50:37;;;;;;;;;;;6.50;99.90;;;;;;5054283;28;19931;-70
2022/04/30 05:53:04;;;;;;;;;;;6.70;99.90;;;;;;5054986;28;19925;-70
2022/04/30 05:55:30;;;;;;;;;;;6.60;99.90;;;;;;5054925;28;20310;-72
2022/04/30 05:57:56;;;;;;;;;;;6.70;99.90;;;;;;5055021;28;19925;-71
2022/04/30 06:00:21;;;;;;;;;;;7.40;99.90;;;;;;5055068;28;19935;-72
2022/04/30 06:02:47;;;;;;;;;;;6.80;99.90;;;;;;5054901;28;19925;-70
2022/04/30 06:05:13;;;;;;;;;;;6.80;99.90;;;;;;5054965;28;19931;-70
2022/04/30 06:07:39;;;;;;;;;;;7.00;99.90;;;;;;5054727;28;20328;-71
2022/04/30 06:10:05;;;;;;;;;;;6.90;99.90;;;;;;5054660;28;19978;-72
2022/04/30 06:12:31;;;;;;;;;;;6.90;99.90;;;;;;5054830;28;19932;-69
2022/04/30 06:14:57;;;;;;;;;;;7.10;99.90;;;;;;5054482;28;19924;-70
2022/04/30 06:17:22;;;;;;;;;;;7.00;99.90;;;;;;5054711;28;19925;-70
2022/04/30 06:19:48;;;;;;;;;;;7.60;99.90;;;;;;5054684;28;19925;-70
2022/04/30 06:22:13;;;;;;;;;;;7.80;99.90;;;;;;5054444;28;19932;-69
2022/04/30 06:24:39;;;;;;;;;;;7.10;99.90;;;;;;5054848;28;20011;-70
2022/04/30 06:27:05;;;;;;;;;;;7.20;99.90;;;;;;5054307;28;19978;-70
2022/04/30 06:29:31;;;;;;;;;;;7.30;99.90;;;;;;5054540;28;19931;-69
2022/04/30 06:31:56;;;;;;;;;;;7.30;99.90;;;;;;5054248;28;19924;-70
2022/04/30 06:34:22;;;;;;;;;;;7.20;99.90;;;;;;5054330;28;19925;-71
2022/04/30 06:36:48;;;;;;;;;;;8.30;99.90;;;;;;5054228;28;20394;-70
2022/04/30 06:39:14;;;;;;;;;;;7.60;99.90;;;;;;5054259;28;19925;-70
2022/04/30 06:41:39;;;;;;;;;;;7.70;99.90;;;;;;5052975;28;20403;-71
2022/04/30 06:44:05;;;;;;;;;;;7.90;99.90;;;;;;5051818;28;20300;-70
2022/04/30 06:46:31;;;;;;;;;;;8.30;99.90;;;;;;5054056;28;19924;-73
2022/04/30 06:48:58;;;;;;;;;;;8.40;99.90;;;;;;5054069;28;19976;-69
2022/04/30 06:51:23;;;;;;;;;;;8.30;99.90;;;;;;5053115;28;19925;-71
2022/04/30 06:59:18;;;;;;;;;;;8.50;99.90;;;;;;5053865;28;20019;-70
2022/04/30 07:01:57;;;;;;;;;;;8.60;99.90;;;;;;5052728;28;20019;-70
2022/04/30 07:04:24;;;;;;;;;;;8.70;99.90;;;;;;5053524;28;19925;-72
2022/04/30 07:06:50;;;;;;;;;;;8.80;99.90;;;;;;5053588;28;19986;-72
2022/04/30 07:09:16;;;;;;;;;;;8.90;99.90;;;;;;5053754;28;20303;-69
2022/04/30 07:11:41;;;;;;;;;;;8.90;99.90;;;;;;5053249;28;19951;-71
2022/04/30 07:14:07;;;;;;;;;;;9.00;99.90;;;;;;5052573;28;19924;-69
2022/04/30 07:16:33;;;;;;;;;;;9.90;99.90;;;;;;5053636;28;20015;-70
2022/04/30 07:19:01;;;;;;;;;;;9.10;99.90;;;;;;5053660;28;19928;-70
2022/04/30 07:21:28;;;;;;;;;;;10.70;99.90;;;;;;5053543;28;19980;-72
2022/04/30 07:23:54;;;;;;;;;;;9.20;99.90;;;;;;5053826;28;19936;-70
2022/04/30 07:26:32;;;;;;;;;;;9.30;99.90;;;;;;5053209;28;19925;-70
2022/04/30 07:28:57;;;;;;;;;;;9.30;99.90;;;;;;5052534;28;20388;-70
2022/04/30 07:31:23;;;;;;;;;;;9.40;99.90;;;;;;5052512;28;20026;-70
2022/04/30 07:33:51;;;;;;;;;;;9.40;99.90;;;;;;5053435;28;19931;-70
2022/04/30 07:36:17;;;;;;;;;;;9.50;99.90;;;;;;5052344;28;20330;-70
2022/04/30 07:38:43;;;;;;;;;;;9.40;99.90;;;;;;5052490;28;19925;-70
2022/04/30 07:41:08;;;;;;;;;;;9.40;99.90;;;;;;5052212;28;19982;-70
2022/04/30 07:43:34;;;;;;;;;;;9.50;99.90;;;;;;5053280;28;19925;-70
2022/04/30 07:45:59;;;;;;;;;;;9.50;99.90;;;;;;5053409;28;20431;-70
2022/04/30 07:48:25;;;;;;;;;;;9.50;99.90;;;;;;5053293;28;19964;-69
2022/04/30 07:50:52;;;;;;;;;;;9.50;99.90;;;;;;5053258;28;19932;-70
2022/04/30 07:53:18;;;;;;;;;;;8.70;99.90;;;;;;5053376;28;19970;-70
2022/04/30 07:55:43;;;;;;;;;;;10.60;99.90;;;;;;5052478;28;19976;-69
2022/04/30 07:58:09;;;;;;;;;;;9.60;99.90;;;;;;5052399;28;19971;-70
2022/04/30 08:00:35;;;;;;;;;;;9.70;99.90;;;;;;5053311;28;20354;-70
2022/04/30 08:03:01;;;;;;;;;;;9.70;99.90;;;;;;5053149;28;20079;-70
2022/04/30 08:05:27;;;;;;;;;;;9.80;99.90;;;;;;5052851;28;19932;-69
2022/04/30 08:07:54;;;;;;;;;;;9.80;99.90;;;;;;5052801;28;19924;-70
2022/04/30 08:10:20;;;;;;;;;;;9.90;99.90;;;;;;5053233;28;20362;-71
2022/04/30 08:12:47;;;;;;;;;;;9.90;99.90;;;;;;5052180;28;19925;-70
2022/04/30 08:15:14;;;;;;;;;;;9.90;99.90;;;;;;5052655;28;20342;-70
2022/04/30 08:17:40;;;;;;;;;;;10.50;99.90;;;;;;5035337;28;19925;-70
2022/04/30 08:20:06;;;;;;;;;;;10.60;99.90;;;;;;5052810;28;19979;-70
2022/04/30 08:22:32;;;;;;;;;;;10.00;99.90;;;;;;5052586;28;19929;-70
2022/04/30 08:24:59;;;;;;;;;;;10.10;99.90;;;;;;5051676;28;19925;-70
2022/04/30 08:27:25;;;;;;;;;;;10.20;99.90;;;;;;5051789;28;19931;-70
2022/04/30 08:29:50;;;;;;;;;;;11.60;99.90;;;;;;5051657;28;19925;-70
2022/04/30 08:32:16;;;;;;;;;;;10.30;99.90;;;;;;5052726;28;19925;-71
2022/04/30 08:34:42;;;;;;;;;;;10.20;99.90;;;;;;5051793;28;19936;-70
2022/04/30 08:37:08;;;;;;;;;;;10.40;99.90;;;;;;5051480;28;19925;-69
2022/04/30 08:39:33;;;;;;;;;;;10.60;99.90;;;;;;5055355;28;19991;-70
2022/04/30 08:41:59;;;;;;;;;;;10.50;99.90;;;;;;5056098;28;20026;-70
2022/04/30 08:44:25;;;;;;;;;;;10.60;99.90;;;;;;5056230;28;19968;-71
2022/04/30 08:46:50;;;;;;;;;;;11.50;99.90;;;;;;5055364;28;19964;-70
2022/04/30 08:49:16;;;;;;;;;;;10.60;99.90;;;;;;5055173;28;19924;-70
2022/04/30 08:51:42;;;;;;;;;;;10.90;99.90;;;;;;5056035;28;19928;-70
2022/04/30 08:54:08;;;;;;;;;;;10.90;99.90;;;;;;5055204;28;19976;-69
2022/04/30 08:56:34;;;;;;;;;;;11.00;99.90;;;;;;5056110;28;19986;-70
2022/04/30 08:59:06;;;;;;;;;;;11.50;99.90;;;;;;5054917;28;19935;-70
2022/04/30 09:01:43;;;;;;;;;;;11.20;99.90;;;;;;5055841;28;19929;-70
2022/04/30 09:04:08;;;;;;;;;;;11.10;99.90;;;;;;5055851;28;19978;-70
2022/04/30 09:06:43;;;;;;;;;;;11.10;99.90;;;;;;5055432;28;20354;-71
2022/04/30 09:09:09;;;;;;;;;;;11.10;99.90;;;;;;5054875;28;19978;-71
2022/04/30 09:11:38;;;;;;;;;;;11.10;99.90;;;;;;5055715;28;19924;-70
2022/04/30 09:14:03;;;;;;;;;;;11.30;99.90;;;;;;5054439;28;19978;-70
2022/04/30 09:16:29;;;;;;;;;;;11.60;99.90;;;;;;5054650;28;19924;-70
2022/04/30 09:19:00;;;;;;;;;;;11.30;99.90;;;;;;5055640;28;19925;-69
2022/04/30 09:21:26;;;;;;;;;;;11.30;99.90;;;;;;5055386;28;19929;-72
2022/04/30 09:23:53;;;;;;;;;;;11.30;99.90;;;;;;5055602;28;19929;-70
2022/04/30 09:26:18;;;;;;;;;;;11.30;99.90;;;;;;5055495;28;19931;-70
2022/04/30 09:28:45;;;;;;;;;;;11.30;99.90;;;;;;5054419;28;19925;-70
2022/04/30 09:31:12;;;;;;;;;;;11.30;99.90;;;;;;5055179;28;20020;-70
2022/04/30 09:33:38;;;;;;;;;;;11.30;99.90;;;;;;5045149;28;20430;-70
2022/04/30 09:38:49;;;;;;;;;;;11.40;99.90;;;;;;5035193;28;20396;-72
2022/04/30 09:41:20;;;;;;;;;;;11.40;99.90;;;;;;5051988;28;19924;-70
2022/04/30 09:43:45;;;;;;;;;;;11.50;99.90;;;;;;5053446;28;19932;-71
2022/04/30 09:46:11;;;;;;;;;;;11.40;99.90;;;;;;5053749;28;19936;-72
2022/04/30 09:54:07;;;;;;;;;;;11.60;99.90;;;;;;5054828;28;19932;-73
2022/04/30 09:56:35;;;;;;;;;;;11.60;99.90;;;;;;5054862;28;20403;-70
2022/04/30 09:59:02;;;;;;;;;;;11.70;99.90;;;;;;5053734;28;20372;-71
2022/04/30 10:01:30;;;;;;;;;;;11.70;99.90;;;;;;5054968;28;19929;-69
2022/04/30 10:03:56;;;;;;;;;;;11.90;99.90;;;;;;5054850;28;19932;-71
2022/04/30 10:06:21;;;;;;;;;;;11.60;99.90;;;;;;5053259;28;19936;-71
2022/04/30 10:08:49;;;;;;;;;;;12.20;99.90;;;;;;5053968;28;20213;-71
2022/04/30 10:11:24;;;;;;;;;;;12.30;99.90;;;;;;5054542;28;19986;-70
2022/04/30 10:13:57;;;;;;;;;;;12.20;99.90;;;;;;5053247;28;19964;-69
2022/04/30 10:16:25;;;;;;;;;;;12.20;99.90;;;;;;5054614;28;19925;-71
2022/04/30 10:19:09;;;;;;;;;;;12.20;99.90;;;;;;5054567;28;20362;-71
2022/04/30 10:21:35;;;;;;;;;;;12.30;99.90;;;;;;5053424;28;20011;-71
2022/04/30 10:24:01;;;;;;;;;;;12.30;99.90;;;;;;5054492;28;19960;-71
2022/04/30 10:26:27;;;;;;;;;;;12.40;99.90;;;;;;5054217;28;19924;-72
2022/04/30 10:29:08;;;;;;;;;;;12.30;99.90;;;;;;5054314;28;19931;-70
2022/04/30 10:31:41;;;;;;;;;;;12.30;99.90;;;;;;5052875;28;19990;-73
2022/04/30 10:34:07;;;;;;;;;;;12.30;99.90;;;;;;5053279;28;19925;-71
2022/04/30 10:36:33;;;;;;;;;;;12.30;99.90;;;;;;5053995;28;19971;-71
2022/04/30 10:39:09;;;;;;;;;;;12.40;99.90;;;;;;5053036;28;19979;-70
2022/04/30 10:41:44;;;;;;;;;;;12.30;99.90;;;;;;5052905;28;20384;-72
2022/04/30 10:44:12;;;;;;;;;;;12.30;99.90;;;;;;5053959;28;19925;-71
2022/04/30 10:46:39;;;;;;;;;;;12.50;99.90;;;;;;5054070;28;19979;-69
2022/04/30 10:49:05;;;;;;;;;;;12.30;99.90;;;;;;5053853;28;19982;-72
2022/04/30 10:51:38;;;;;;;;;;;12.30;99.90;;;;;;5053723;28;19925;-70
2022/04/30 10:54:09;;;;;;;;;;;11.10;99.90;;;;;;5053677;28;19932;-71
2022/04/30 10:56:34;;;;;;;;;;;12.30;99.90;;;;;;5053823;28;19932;-69
2022/04/30 10:59:00;;;;;;;;;;;12.30;99.90;;;;;;5053541;28;19924;-70
2022/04/30 11:01:25;;;;;;;;;;;12.30;99.90;;;;;;5051956;28;19925;-73
2022/04/30 11:03:51;;;;;;;;;;;12.30;99.90;;;;;;5053462;28;19925;-71
2022/04/30 11:06:20;;;;;;;;;;;12.30;99.90;;;;;;5053680;28;19932;-70
2022/04/30 11:09:18;;;;;;;;;;;12.40;99.90;;;;;;5053766;28;19925;-71
2022/04/30 11:11:48;;;;;;;;;;;12.50;99.90;;;;;;5011606;28;19948;-71
2022/04/30 11:14:16;;;;;;;;;;;12.60;99.90;;;;;;5011606;28;20060;-72
2022/04/30 11:16:44;;;;;;;;;;;12.60;99.90;;;;;;4995161;28;19926;-70
2022/04/30 11:19:11;;;;;;;;;;;12.60;99.90;;;;;;4995166;28;19929;-71
2022/04/30 11:21:38;;;;;;;;;;;12.70;99.90;;;;;;4979015;28;19941;-70
2022/04/30 11:24:04;;;;;;;;;;;12.60;99.90;;;;;;5011336;28;19925;-68
2022/04/30 11:26:30;;;;;;;;;;;12.60;99.90;;;;;;5011501;28;20389;-69
2022/04/30 11:28:56;;;;;;;;;;;12.50;99.90;;;;;;5011349;28;19925;-72
2022/04/30 11:31:22;;;;;;;;;;;12.50;99.90;;;;;;5011378;28;19968;-69
2022/04/30 11:33:48;;;;;;;;;;;12.50;99.90;;;;;;5011406;28;19972;-71
2022/04/30 11:36:14;;;;;;;;;;;12.40;99.90;;;;;;5011399;28;19925;-69
2022/04/30 11:38:40;;;;;;;;;;;12.40;99.90;;;;;;4995062;28;19979;-70
2022/04/30 11:41:06;;;;;;;;;;;12.40;99.90;;;;;;4978975;28;19925;-72
2022/04/30 11:43:32;;;;;;;;;;;12.30;99.90;;;;;;4994654;28;20404;-69
2022/04/30 11:45:58;;;;;;;;;;;13.10;99.90;;;;;;5011332;28;19925;-70
2022/04/30 11:48:25;;;;;;;;;;;12.20;99.90;;;;;;5050923;28;20552;-70
2022/04/30 11:50:51;;;;;;;;;;;12.20;99.90;;;;;;5053295;28;19929;-70
2022/04/30 11:53:17;;;;;;;;;;;12.10;99.90;;;;;;5053004;28;19931;-73
2022/04/30 11:55:42;;;;;;;;;;;12.30;99.90;;;;;;5053156;28;19925;-72
2022/04/30 11:58:08;;;;;;;;;;;12.10;99.90;;;;;;5053106;28;19931;-70
2022/04/30 12:00:34;;;;;;;;;;;12.10;99.90;;;;;;5049220;28;19931;-72
2022/04/30 12:03:00;;;;;;;;;;;12.10;99.90;;;;;;5052793;28;19925;-70
2022/04/30 12:05:25;;;;;;;;;;;12.10;99.90;;;;;;5046222;28;19925;-73
2022/04/30 12:07:59;;;;;;;;;;;12.10;99.90;;;;;;5052688;28;19931;-69
2022/04/30 12:10:26;;;;;;;;;;;12.10;99.90;;;;;;5052028;28;19976;-68
2022/04/30 12:12:52;;;;;;;;;;;12.10;99.90;;;;;;5050582;28;19932;-68
2022/04/30 12:15:25;;;;;;;;;;;12.10;99.90;;;;;;5054544;28;19964;-69
2022/04/30 12:26:23;;;;;;;;;;;12.10;99.90;;;;;;5055037;28;19939;-70
2022/04/30 12:28:50;;;;;;;;;;;12.10;99.90;;;;;;5056476;28;19924;-69
2022/04/30 12:31:16;;;;;;;;;;;12.10;99.90;;;;;;5054824;28;19925;-68
2022/04/30 12:33:42;;;;;;;;;;;12.20;99.90;;;;;;5036512;28;19925;-71
2022/04/30 12:36:11;;;;;;;;;;;12.10;99.90;;;;;;5040538;28;19925;-70
2022/04/30 12:38:36;;;;;;;;;;;12.10;99.90;;;;;;5056227;28;19925;-69
2022/04/30 12:41:02;;;;;;;;;;;12.10;99.90;;;;;;5056517;28;19932;-69
2022/04/30 12:43:31;;;;;;;;;;;12.10;99.90;;;;;;5046928;28;19925;-69
2022/04/30 12:45:56;;;;;;;;;;;12.10;99.90;;;;;;5037177;28;19929;-69
2022/04/30 12:48:22;;;;;;;;;;;12.00;99.90;;;;;;5036781;28;19936;-67
2022/04/30 12:50:48;;;;;;;;;;;12.00;99.90;;;;;;5044559;28;20283;-68
2022/04/30 12:53:13;;;;;;;;;;;12.00;99.90;;;;;;5055826;28;20376;-70
2022/04/30 12:55:41;;;;;;;;;;;11.90;99.90;;;;;;5053278;28;19931;-68
2022/04/30 12:58:07;;;;;;;;;;;12.00;99.90;;;;;;5055689;28;19985;-69
2022/04/30 13:00:35;;;;;;;;;;;11.90;99.90;;;;;;5055902;28;20062;-69
2022/04/30 13:03:01;;;;;;;;;;;11.90;99.90;;;;;;5055819;28;20018;-69
2022/04/30 13:05:27;;;;;;;;;;;11.90;99.90;;;;;;5055734;28;19928;-70
2022/04/30 13:07:53;;;;;;;;;;;11.90;99.90;;;;;;5055749;28;19928;-71
2022/04/30 13:15:46;;;;;;;;;;;11.90;99.90;;;;;;5055639;28;20075;-71
2022/04/30 13:18:12;;;;;;;;;;;11.90;99.90;;;;;;5055610;28;20015;-71
2022/04/30 13:20:38;;;;;;;;;;;11.90;99.90;;;;;;5055992;28;19931;-69
2022/04/30 13:23:03;;;;;;;;;;;12.00;99.90;;;;;;5055519;28;19925;-70
2022/04/30 13:25:29;;;;;;;;;;;12.00;99.90;;;;;;5054597;28;20296;-69
2022/04/30 13:28:01;;;;;;;;;;;12.00;99.90;;;;;;5053914;28;19932;-71
2022/04/30 13:30:29;;;;;;;;;;;12.00;99.90;;;;;;5055429;28;19947;-71
2022/04/30 13:32:55;;;;;;;;;;;12.00;99.90;;;;;;5055309;28;19932;-70
2022/04/30 13:35:21;;;;;;;;;;;12.00;99.90;;;;;;5055316;28;19925;-69
2022/04/30 13:37:46;;;;;;;;;;;12.00;99.90;;;;;;5054456;28;20380;-70
2022/04/30 13:40:16;;;;;;;;;;;12.10;99.90;;;;;;5055383;28;19990;-69
2022/04/30 13:42:42;;;;;;;;;;;12.00;99.90;;;;;;5055156;28;20367;-70
2022/04/30 13:45:08;;;;;;;;;;;12.10;99.90;;;;;;5055116;28;19924;-70
2022/04/30 13:47:34;;;;;;;;;;;12.10;99.90;;;;;;5054996;28;20288;-69
2022/04/30 13:50:00;;;;;;;;;;;12.10;99.90;;;;;;5054012;28;19955;-71
2022/04/30 13:52:25;;;;;;;;;;;12.10;99.90;;;;;;5052934;28;19932;-71
2022/04/30 13:54:51;;;;;;;;;;;12.20;99.90;;;;;;5055198;28;19924;-71
2022/04/30 13:57:17;;;;;;;;;;;12.20;99.90;;;;;;5054960;28;19924;-69
2022/04/30 13:59:42;;;;;;;;;;;12.30;99.90;;;;;;5054796;28;19936;-70
2022/04/30 14:02:10;;;;;;;;;;;12.30;99.90;;;;;;5054804;28;20351;-70
2022/04/30 14:04:36;;;;;;;;;;;12.30;99.90;;;;;;5054298;28;19925;-68
2022/04/30 14:07:03;;;;;;;;;;;12.40;99.90;;;;;;5053397;28;19952;-72
2022/04/30 14:09:28;;;;;;;;;;;12.40;99.90;;;;;;5054743;28;19925;-69
2022/04/30 14:11:54;;;;;;;;;;;11.20;99.90;;;;;;5054545;28;20015;-69
2022/04/30 14:19:51;;;;;;;;;;;12.50;99.90;;;;;;5054645;28;19928;-70
2022/04/30 14:22:17;;;;;;;;;;;12.70;99.90;;;;;;5054486;28;19925;-70
2022/04/30 14:24:43;;;;;;;;;;;12.60;99.90;;;;;;5054346;28;19936;-70
2022/04/30 14:27:08;;;;;;;;;;;12.60;99.90;;;;;;5054415;28;19929;-70
2022/04/30 14:29:34;;;;;;;;;;;12.70;99.90;;;;;;5053252;28;20380;-70
2022/04/30 14:32:00;;;;;;;;;;;12.70;99.90;;;;;;5054170;28;20277;-69
2022/04/30 14:34:26;;;;;;;;;;;13.00;99.90;;;;;;5054382;28;19968;-70
2022/04/30 14:36:51;;;;;;;;;;;12.90;98.40;;;;;;5054156;28;20442;-69
2022/04/30 14:39:17;;;;;;;;;;;13.00;99.90;;;;;;5054177;28;19924;-70
2022/04/30 14:41:44;;;;;;;;;;;12.80;99.90;;;;;;5053805;28;19977;-70
2022/04/30 14:44:10;;;;;;;;;;;12.80;99.60;;;;;;5036149;28;20356;-70
2022/04/30 14:46:36;;;;;;;;;;;12.80;99.90;;;;;;5053838;28;19979;-70
2022/04/30 14:49:01;;;;;;;;;;;12.80;99.90;;;;;;5053897;28;20002;-71
2022/04/30 14:51:28;;;;;;;;;;;12.80;99.90;;;;;;5052891;28;19979;-71
2022/04/30 14:53:53;;;;;;;;;;;12.80;99.90;;;;;;5054049;28;20402;-71
2022/04/30 14:56:19;;;;;;;;;;;12.80;99.90;;;;;;5053043;28;20011;-70
2022/04/30 14:58:45;;;;;;;;;;;12.80;98.20;;;;;;5052903;28;19987;-71
2022/04/30 15:01:10;;;;;;;;;;;12.90;97.80;;;;;;5053830;28;19986;-71
2022/04/30 15:03:36;;;;;;;;;;;12.90;95.40;;;;;;5052534;28;20029;-70
2022/04/30 15:06:01;;;;;;;;;;;12.90;95.80;;;;;;5052599;28;19925;-70
2022/04/30 15:08:27;;;;;;;;;;;12.90;98.00;;;;;;5053624;28;19928;-71
2022/04/30 15:10:52;;;;;;;;;;;12.90;96.90;;;;;;5053708;28;19975;-70
2022/04/30 15:13:33;;;;;;;;;;;12.90;99.90;;;;;;5053642;28;19968;-70